createdAt,value
2019-04-16T00:00:46.026Z,0.40
2019-04-16T00:05:59.834Z,0.40
2019-04-16T00:11:26.228Z,0.40
2019-04-16T00:16:33.472Z,0.40
2019-04-16T00:21:59.739Z,0.50
2019-04-16T00:27:07.408Z,0.50
2019-04-16T00:32:26.419Z,0.50
2019-04-16T00:37:33.515Z,0.60
2019-04-16T00:42:41.099Z,0.80
2019-04-16T00:47:51.468Z,1.00
2019-04-16T00:52:56.971Z,1.20
2019-04-16T00:58:04.248Z,1.40
2019-04-16T01:03:11.425Z,1.60
2019-04-16T01:08:18.615Z,1.80
2019-04-16T01:13:26.098Z,2.00
2019-04-16T01:18:33.243Z,2.20
2019-04-16T01:23:40.525Z,2.50
2019-04-16T01:28:55.770Z,2.70
2019-04-16T01:34:23.490Z,2.80
2019-04-16T01:39:31.291Z,2.90
2019-04-16T01:44:38.797Z,3.00
2019-04-16T01:49:46.173Z,3.10
2019-04-16T01:54:54.976Z,3.10
2019-04-16T02:00:07.044Z,3.10
2019-04-16T02:05:13.467Z,3.10
2019-04-16T02:10:20.531Z,3.10
2019-04-16T02:15:27.828Z,3.10
2019-04-16T02:20:38.393Z,3.10
2019-04-16T02:25:44.732Z,3.10
2019-04-16T02:30:51.868Z,3.00
2019-04-16T02:35:59.515Z,3.00
2019-04-16T02:41:06.813Z,3.00
2019-04-16T02:46:14.492Z,3.00
2019-04-16T02:51:28.311Z,3.00
2019-04-16T02:57:00.418Z,3.10
2019-04-16T03:02:35.821Z,3.10
2019-04-16T03:07:43.008Z,3.20
2019-04-16T03:12:52.103Z,3.30
2019-04-16T03:17:58.934Z,3.30
2019-04-16T03:23:06.793Z,3.30
2019-04-16T03:28:14.325Z,3.30
2019-04-16T03:33:21.544Z,3.30
2019-04-16T03:38:28.701Z,3.30
2019-04-16T03:43:35.771Z,3.40
2019-04-16T03:48:43.017Z,3.40
2019-04-16T03:53:50.451Z,3.40
2019-04-16T03:58:57.595Z,3.40
2019-04-16T04:04:05.864Z,3.30
2019-04-16T04:09:12.931Z,3.30
2019-04-16T04:14:23.286Z,3.30
2019-04-16T04:19:29.108Z,3.30
2019-04-16T04:24:36.339Z,3.30
2019-04-16T04:29:46.358Z,3.40
2019-04-16T04:34:52.560Z,3.40
2019-04-16T04:39:59.689Z,3.50
2019-04-16T04:45:08.947Z,3.60
2019-04-16T04:50:16.692Z,3.60
2019-04-16T04:55:26.817Z,3.60
2019-04-16T05:00:33.598Z,3.70
2019-04-16T05:05:45.400Z,3.80
2019-04-16T05:10:59.015Z,3.90
2019-04-16T05:16:01.969Z,4.10
2019-04-16T05:21:10.043Z,4.40
2019-04-16T05:26:17.253Z,4.50
2019-04-16T05:31:25.639Z,4.70
2019-04-16T05:36:33.755Z,4.90
2019-04-16T05:41:40.903Z,5.10
2019-04-16T05:46:48.056Z,5.30
2019-04-16T05:51:55.518Z,5.50
2019-04-16T05:57:03.045Z,5.70
2019-04-16T06:02:18.285Z,6.00
2019-04-16T06:07:23.584Z,6.10
2019-04-16T06:12:40.154Z,6.30
2019-04-16T06:18:07.321Z,6.40
2019-04-16T06:23:32.750Z,6.60
2019-04-16T06:29:10.763Z,6.70
2019-04-16T06:34:36.693Z,6.80
2019-04-16T06:40:05.752Z,7.10
2019-04-16T06:45:26.751Z,7.40
2019-04-16T06:51:01.504Z,7.60
2019-04-16T06:56:26.213Z,7.90
2019-04-16T07:01:52.286Z,8.20
2019-04-16T07:07:17.133Z,8.50
2019-04-16T07:12:26.937Z,8.80
2019-04-16T07:17:34.556Z,9.00
2019-04-16T07:22:42.245Z,9.20
2019-04-16T07:27:58.806Z,9.50
2019-04-16T07:33:25.518Z,9.60
2019-04-16T07:38:48.312Z,9.60
2019-04-16T07:44:10.489Z,9.90
2019-04-16T07:49:33.309Z,10.10
2019-04-16T07:55:05.550Z,10.30
2019-04-16T08:00:14.225Z,10.40
2019-04-16T08:05:21.358Z,10.40
2019-04-16T08:10:28.613Z,10.50
2019-04-16T08:15:35.847Z,10.80
2019-04-16T08:20:43.828Z,11.10
2019-04-16T08:25:58.697Z,11.40
2019-04-16T08:31:00.228Z,11.70
2019-04-16T08:36:07.466Z,11.70
2019-04-16T08:41:20.073Z,11.70
2019-04-16T08:46:23.639Z,11.80
2019-04-16T08:51:34.394Z,11.80
2019-04-16T08:56:39.612Z,11.80
2019-04-16T09:01:46.764Z,11.90
2019-04-16T09:06:53.910Z,12.20
2019-04-16T09:12:08.927Z,12.50
2019-04-16T09:17:35.340Z,12.60
2019-04-16T09:22:49.359Z,12.80
2019-04-16T09:27:55.249Z,12.80
2019-04-16T09:33:09.935Z,12.80
2019-04-16T09:38:22.176Z,13.20
2019-04-16T09:43:29.656Z,13.60
2019-04-16T09:48:36.956Z,13.80
2019-04-16T09:53:44.163Z,13.70
2019-04-16T09:58:51.356Z,13.70
2019-04-16T10:03:58.582Z,13.80
2019-04-16T10:09:07.257Z,14.00
2019-04-16T10:14:16.135Z,14.40
2019-04-16T10:19:23.529Z,14.80
2019-04-16T10:25:04.568Z,14.90
2019-04-16T10:30:19.527Z,15.20
2019-04-16T10:35:26.821Z,15.60
2019-04-16T10:40:41.932Z,15.50
2019-04-16T10:46:04.656Z,15.70
2019-04-16T10:51:26.670Z,16.00
2019-04-16T10:56:56.704Z,16.30
2019-04-16T11:02:18.672Z,16.50
2019-04-16T11:07:28.290Z,16.70
2019-04-16T11:12:35.459Z,16.30
2019-04-16T11:17:42.642Z,16.50
2019-04-16T11:22:49.831Z,16.70
2019-04-16T11:27:56.847Z,17.10
2019-04-16T11:33:04.047Z,17.30
2019-04-16T11:38:11.303Z,17.70
2019-04-16T11:43:18.732Z,17.60
2019-04-16T11:48:25.860Z,17.60
2019-04-16T11:53:33.027Z,17.80
2019-04-16T11:58:42.928Z,18.20
2019-04-16T12:03:57.306Z,18.80
2019-04-16T12:09:39.826Z,19.40
2019-04-16T12:15:07.687Z,19.40
2019-04-16T12:20:32.736Z,19.60
2019-04-16T12:26:01.986Z,20.10
2019-04-16T12:31:20.899Z,22.10
2019-04-16T12:36:47.043Z,24.30
2019-04-16T12:42:00.417Z,25.60
2019-04-16T12:47:10.457Z,26.40
2019-04-16T12:52:51.819Z,26.90
2019-04-16T12:58:06.488Z,28.00
2019-04-16T13:03:35.206Z,28.70
2019-04-16T13:08:59.110Z,29.80
2019-04-16T13:14:23.931Z,30.70
2019-04-16T13:19:53.740Z,30.90
2019-04-16T13:25:07.575Z,30.30
2019-04-16T13:30:15.025Z,30.10
2019-04-16T13:35:22.139Z,30.30
2019-04-16T13:40:29.399Z,30.20
2019-04-16T13:45:38.712Z,30.20
2019-04-16T13:50:52.006Z,30.40
2019-04-16T13:56:26.977Z,30.10
2019-04-16T14:01:39.277Z,30.10
2019-04-16T14:06:46.406Z,29.70
2019-04-16T14:11:54.023Z,30.20
2019-04-16T14:17:09.053Z,30.50
2019-04-16T14:22:09.880Z,30.70
2019-04-16T14:27:16.984Z,30.90
2019-04-16T14:32:24.196Z,31.00
2019-04-16T14:37:32.408Z,30.50
2019-04-16T14:42:39.623Z,30.50
2019-04-16T14:47:46.797Z,29.90
2019-04-16T14:52:53.909Z,29.70
2019-04-16T14:58:12.032Z,29.80
2019-04-16T15:03:38.128Z,30.10
2019-04-16T15:09:06.965Z,29.60
2019-04-16T15:14:32.962Z,29.40
2019-04-16T15:19:54.699Z,29.30
2019-04-16T15:25:35.792Z,29.20
2019-04-16T15:30:49.069Z,29.10
2019-04-16T15:35:59.787Z,28.70
2019-04-16T15:41:37.208Z,29.00
2019-04-16T15:47:03.156Z,29.00
2019-04-16T15:52:46.243Z,28.20
2019-04-16T15:58:14.839Z,27.90
2019-04-16T16:03:39.531Z,27.80
2019-04-16T16:08:51.163Z,27.60
2019-04-16T16:14:00.391Z,26.50
2019-04-16T16:19:10.904Z,26.30
2019-04-16T16:24:15.736Z,25.80
2019-04-16T16:29:22.812Z,25.60
2019-04-16T16:34:30.037Z,25.00
2019-04-16T16:39:37.298Z,23.90
2019-04-16T16:44:45.577Z,23.10
2019-04-16T16:49:52.968Z,22.20
2019-04-16T16:55:04.341Z,21.60
2019-04-16T17:00:28.703Z,21.30
2019-04-16T17:05:40.398Z,20.90
2019-04-16T17:10:48.765Z,19.60
2019-04-16T17:15:56.159Z,18.80
2019-04-16T17:21:03.381Z,16.20
2019-04-16T17:26:15.479Z,13.60
2019-04-16T17:31:19.517Z,11.70
2019-04-16T17:36:27.359Z,10.40
2019-04-16T17:41:49.735Z,9.50
2019-04-16T17:47:32.511Z,8.90
2019-04-16T17:52:57.533Z,8.70
2019-04-16T17:58:27.398Z,8.30
2019-04-16T18:03:55.203Z,7.80
2019-04-16T18:09:15.908Z,7.50
2019-04-16T18:14:51.120Z,7.20
2019-04-16T18:20:16.052Z,7.00
2019-04-16T18:25:36.719Z,6.80
2019-04-16T18:31:08.973Z,6.70
2019-04-16T18:36:38.297Z,6.70
2019-04-16T18:42:19.433Z,6.80
2019-04-16T18:48:12.035Z,6.80
2019-04-16T18:53:12.414Z,7.00
2019-04-16T18:58:19.502Z,7.20
2019-04-16T19:03:26.717Z,7.40
2019-04-16T19:08:41.456Z,7.50
2019-04-16T19:13:42.562Z,7.40
2019-04-16T19:18:49.955Z,7.50
2019-04-16T19:23:57.182Z,7.40
2019-04-16T19:29:05.983Z,7.30
2019-04-16T19:34:13.492Z,7.30
2019-04-16T19:39:20.705Z,7.30
2019-04-16T19:44:27.805Z,7.20
2019-04-16T19:49:34.948Z,7.10
2019-04-16T19:54:42.066Z,7.10
2019-04-16T19:59:49.315Z,7.10
2019-04-16T20:04:56.573Z,7.10
2019-04-16T20:10:04.219Z,7.00
2019-04-16T20:15:13.055Z,7.00
2019-04-16T20:20:20.150Z,7.00
2019-04-16T20:25:27.329Z,6.90
2019-04-16T20:30:34.493Z,6.90
2019-04-16T20:35:41.512Z,6.90
2019-04-16T20:40:48.575Z,6.80
2019-04-16T20:45:55.840Z,6.80
2019-04-16T20:51:02.888Z,6.80
2019-04-16T20:56:10.907Z,6.70
2019-04-16T21:01:32.705Z,6.70
2019-04-16T21:06:31.885Z,6.70
2019-04-16T21:11:41.040Z,6.60
2019-04-16T21:16:48.234Z,6.60
2019-04-16T21:21:56.938Z,6.60
2019-04-16T21:27:04.180Z,6.60
2019-04-16T21:32:31.301Z,6.60
2019-04-16T21:37:56.384Z,6.60
2019-04-16T21:43:07.676Z,6.50
2019-04-16T21:48:12.654Z,6.50
2019-04-16T21:53:20.486Z,6.50
2019-04-16T21:58:27.578Z,6.50
2019-04-16T22:03:35.251Z,6.50
2019-04-16T22:08:42.845Z,6.40
2019-04-16T22:13:50.658Z,6.40
2019-04-16T22:18:59.480Z,6.30
2019-04-16T22:24:06.569Z,6.20
2019-04-16T22:29:15.791Z,6.10
2019-04-16T22:34:23.266Z,6.00
2019-04-16T22:39:43.528Z,6.00
2019-04-16T22:45:09.444Z,6.00
2019-04-16T22:50:17.425Z,6.00
2019-04-16T22:55:25.720Z,6.00
2019-04-16T23:00:35.775Z,5.90
2019-04-16T23:05:44.159Z,5.90
2019-04-16T23:10:52.123Z,5.90
2019-04-16T23:15:59.621Z,5.90
2019-04-16T23:21:10.348Z,5.90
2019-04-16T23:26:16.134Z,5.90
2019-04-16T23:31:23.748Z,5.80
2019-04-16T23:36:31.975Z,5.80
2019-04-16T23:41:39.077Z,5.80
2019-04-16T23:47:06.401Z,5.80
2019-04-16T23:52:15.891Z,5.80
2019-04-16T23:57:37.899Z,5.70
